sensor_id;sensor_type;location;lat;lon;timestamp;P1;durP1;ratioP1;P2;durP2;ratioP2
71836;SDS011;59686;51.716;7.016;2022-07-12T00:00:22;0.90;;;0.90;;
71836;SDS011;59686;51.716;7.016;2022-07-12T00:02:47;1.25;;;1.00;;
71836;SDS011;59686;51.716;7.016;2022-07-12T00:05:13;1.52;;;1.00;;
71836;SDS011;59686;51.716;7.016;2022-07-12T00:07:38;1.10;;;1.05;;
71836;SDS011;59686;51.716;7.016;2022-07-12T00:10:20;0.90;;;0.90;;
71836;SDS011;59686;51.716;7.016;2022-07-12T00:12:45;0.90;;;0.90;;
71836;SDS011;59686;51.716;7.016;2022-07-12T00:15:11;1.10;;;1.00;;
71836;SDS011;59686;51.716;7.016;2022-07-12T00:17:37;1.10;;;1.00;;
71836;SDS011;59686;51.716;7.016;2022-07-12T00:22:33;1.58;;;0.80;;
71836;SDS011;59686;51.716;7.016;2022-07-12T00:24:59;1.38;;;1.15;;
71836;SDS011;59686;51.716;7.016;2022-07-12T00:27:40;1.17;;;1.08;;
71836;SDS011;59686;51.716;7.016;2022-07-12T00:30:06;1.00;;;0.80;;
71836;SDS011;59686;51.716;7.016;2022-07-12T00:32:33;0.95;;;0.95;;
71836;SDS011;59686;51.716;7.016;2022-07-12T00:34:59;2.33;;;1.08;;
71836;SDS011;59686;51.716;7.016;2022-07-12T00:37:25;0.88;;;0.75;;
71836;SDS011;59686;51.716;7.016;2022-07-12T00:39:51;1.35;;;1.02;;
71836;SDS011;59686;51.716;7.016;2022-07-12T00:42:17;0.70;;;0.70;;
71836;SDS011;59686;51.716;7.016;2022-07-12T00:44:42;2.05;;;0.95;;
71836;SDS011;59686;51.716;7.016;2022-07-12T00:47:16;1.10;;;0.88;;
71836;SDS011;59686;51.716;7.016;2022-07-12T00:49:51;1.13;;;1.02;;
71836;SDS011;59686;51.716;7.016;2022-07-12T00:52:16;0.90;;;0.90;;
71836;SDS011;59686;51.716;7.016;2022-07-12T00:54:43;0.90;;;0.80;;
71836;SDS011;59686;51.716;7.016;2022-07-12T00:57:09;1.20;;;0.90;;
71836;SDS011;59686;51.716;7.016;2022-07-12T00:59:34;1.10;;;1.00;;
71836;SDS011;59686;51.716;7.016;2022-07-12T01:02:00;2.42;;;1.05;;
71836;SDS011;59686;51.716;7.016;2022-07-12T01:04:26;1.27;;;1.17;;
71836;SDS011;59686;51.716;7.016;2022-07-12T01:06:52;0.90;;;0.90;;
71836;SDS011;59686;51.716;7.016;2022-07-12T01:09:20;1.50;;;1.00;;
71836;SDS011;59686;51.716;7.016;2022-07-12T01:11:46;0.95;;;0.90;;
71836;SDS011;59686;51.716;7.016;2022-07-12T01:14:12;1.00;;;0.90;;
71836;SDS011;59686;51.716;7.016;2022-07-12T01:16:39;1.10;;;1.00;;
71836;SDS011;59686;51.716;7.016;2022-07-12T01:19:30;1.05;;;0.95;;
71836;SDS011;59686;51.716;7.016;2022-07-12T01:21:57;0.90;;;0.90;;
71836;SDS011;59686;51.716;7.016;2022-07-12T01:24:27;0.80;;;0.80;;
71836;SDS011;59686;51.716;7.016;2022-07-12T01:26:53;0.80;;;0.80;;
71836;SDS011;59686;51.716;7.016;2022-07-12T01:29:19;1.50;;;0.90;;
71836;SDS011;59686;51.716;7.016;2022-07-12T01:31:45;0.80;;;0.80;;
71836;SDS011;59686;51.716;7.016;2022-07-12T01:34:11;0.80;;;0.80;;
71836;SDS011;59686;51.716;7.016;2022-07-12T01:36:38;1.08;;;0.90;;
71836;SDS011;59686;51.716;7.016;2022-07-12T01:39:05;1.00;;;0.90;;
71836;SDS011;59686;51.716;7.016;2022-07-12T01:41:31;1.13;;;1.05;;
71836;SDS011;59686;51.716;7.016;2022-07-12T01:43:57;1.27;;;1.00;;
71836;SDS011;59686;51.716;7.016;2022-07-12T01:46:24;1.00;;;0.85;;
71836;SDS011;59686;51.716;7.016;2022-07-12T01:48:49;1.48;;;1.00;;
71836;SDS011;59686;51.716;7.016;2022-07-12T01:51:15;1.23;;;0.90;;
71836;SDS011;59686;51.716;7.016;2022-07-12T01:53:41;1.00;;;0.90;;
71836;SDS011;59686;51.716;7.016;2022-07-12T01:56:07;1.65;;;1.20;;
71836;SDS011;59686;51.716;7.016;2022-07-12T01:58:34;1.60;;;1.00;;
71836;SDS011;59686;51.716;7.016;2022-07-12T02:01:00;1.20;;;1.00;;
71836;SDS011;59686;51.716;7.016;2022-07-12T02:03:25;0.88;;;0.88;;
71836;SDS011;59686;51.716;7.016;2022-07-12T02:05:51;2.35;;;1.10;;
71836;SDS011;59686;51.716;7.016;2022-07-12T02:08:17;0.93;;;0.90;;
71836;SDS011;59686;51.716;7.016;2022-07-12T02:10:43;1.20;;;1.10;;
71836;SDS011;59686;51.716;7.016;2022-07-12T02:13:09;1.00;;;0.90;;
71836;SDS011;59686;51.716;7.016;2022-07-12T02:15:35;0.85;;;0.80;;
71836;SDS011;59686;51.716;7.016;2022-07-12T02:18:03;1.13;;;1.02;;
71836;SDS011;59686;51.716;7.016;2022-07-12T02:20:29;0.88;;;0.85;;
71836;SDS011;59686;51.716;7.016;2022-07-12T02:22:54;0.90;;;0.90;;
71836;SDS011;59686;51.716;7.016;2022-07-12T02:25:20;1.20;;;1.00;;
71836;SDS011;59686;51.716;7.016;2022-07-12T02:27:46;0.80;;;0.80;;
71836;SDS011;59686;51.716;7.016;2022-07-12T02:30:11;2.45;;;1.02;;
71836;SDS011;59686;51.716;7.016;2022-07-12T02:32:37;1.15;;;0.90;;
71836;SDS011;59686;51.716;7.016;2022-07-12T02:35:06;0.75;;;0.70;;
71836;SDS011;59686;51.716;7.016;2022-07-12T02:37:32;1.33;;;0.80;;
71836;SDS011;59686;51.716;7.016;2022-07-12T02:39:58;1.58;;;1.10;;
71836;SDS011;59686;51.716;7.016;2022-07-12T02:42:42;1.13;;;1.02;;
71836;SDS011;59686;51.716;7.016;2022-07-12T02:45:11;0.82;;;0.75;;
71836;SDS011;59686;51.716;7.016;2022-07-12T02:47:38;1.35;;;0.77;;
71836;SDS011;59686;51.716;7.016;2022-07-12T02:50:05;1.35;;;0.90;;
71836;SDS011;59686;51.716;7.016;2022-07-12T02:52:33;1.10;;;1.00;;
71836;SDS011;59686;51.716;7.016;2022-07-12T02:54:59;1.85;;;1.10;;
71836;SDS011;59686;51.716;7.016;2022-07-12T02:57:25;1.10;;;1.00;;
71836;SDS011;59686;51.716;7.016;2022-07-12T02:59:51;0.93;;;0.88;;
71836;SDS011;59686;51.716;7.016;2022-07-12T03:02:16;0.82;;;0.82;;
71836;SDS011;59686;51.716;7.016;2022-07-12T03:04:42;1.10;;;1.00;;
71836;SDS011;59686;51.716;7.016;2022-07-12T03:07:08;1.95;;;0.70;;
71836;SDS011;59686;51.716;7.016;2022-07-12T03:09:33;1.08;;;0.88;;
71836;SDS011;59686;51.716;7.016;2022-07-12T03:12:00;0.90;;;0.90;;
71836;SDS011;59686;51.716;7.016;2022-07-12T03:14:26;1.52;;;0.90;;
71836;SDS011;59686;51.716;7.016;2022-07-12T03:16:51;0.80;;;0.80;;
71836;SDS011;59686;51.716;7.016;2022-07-12T03:19:17;1.00;;;0.95;;
71836;SDS011;59686;51.716;7.016;2022-07-12T03:21:43;1.55;;;0.90;;
71836;SDS011;59686;51.716;7.016;2022-07-12T03:24:09;0.80;;;0.80;;
71836;SDS011;59686;51.716;7.016;2022-07-12T03:26:35;1.08;;;0.98;;
71836;SDS011;59686;51.716;7.016;2022-07-12T03:29:01;1.42;;;1.00;;
71836;SDS011;59686;51.716;7.016;2022-07-12T03:31:27;0.90;;;0.90;;
71836;SDS011;59686;51.716;7.016;2022-07-12T03:33:53;0.80;;;0.80;;
71836;SDS011;59686;51.716;7.016;2022-07-12T03:36:19;1.40;;;0.95;;
71836;SDS011;59686;51.716;7.016;2022-07-12T03:38:45;0.90;;;0.88;;
71836;SDS011;59686;51.716;7.016;2022-07-12T03:41:11;1.67;;;1.10;;
71836;SDS011;59686;51.716;7.016;2022-07-12T03:43:37;1.17;;;0.90;;
71836;SDS011;59686;51.716;7.016;2022-07-12T03:46:02;1.02;;;0.73;;
71836;SDS011;59686;51.716;7.016;2022-07-12T03:48:28;0.80;;;0.80;;
71836;SDS011;59686;51.716;7.016;2022-07-12T03:50:54;1.13;;;1.00;;
71836;SDS011;59686;51.716;7.016;2022-07-12T03:53:21;1.60;;;0.90;;
71836;SDS011;59686;51.716;7.016;2022-07-12T03:55:46;0.70;;;0.70;;
71836;SDS011;59686;51.716;7.016;2022-07-12T03:58:12;0.93;;;0.80;;
71836;SDS011;59686;51.716;7.016;2022-07-12T04:00:38;1.00;;;0.90;;
71836;SDS011;59686;51.716;7.016;2022-07-12T04:03:05;1.75;;;0.93;;
71836;SDS011;59686;51.716;7.016;2022-07-12T04:05:31;0.98;;;0.98;;
71836;SDS011;59686;51.716;7.016;2022-07-12T04:10:42;0.75;;;0.75;;
71836;SDS011;59686;51.716;7.016;2022-07-12T04:13:08;0.80;;;0.80;;
71836;SDS011;59686;51.716;7.016;2022-07-12T04:15:33;1.27;;;0.90;;
71836;SDS011;59686;51.716;7.016;2022-07-12T04:17:59;0.60;;;0.60;;
71836;SDS011;59686;51.716;7.016;2022-07-12T04:20:25;1.35;;;0.80;;
71836;SDS011;59686;51.716;7.016;2022-07-12T04:22:51;2.10;;;0.85;;
71836;SDS011;59686;51.716;7.016;2022-07-12T04:25:16;1.30;;;1.00;;
71836;SDS011;59686;51.716;7.016;2022-07-12T04:27:42;0.70;;;0.70;;
71836;SDS011;59686;51.716;7.016;2022-07-12T04:30:08;2.15;;;0.70;;
71836;SDS011;59686;51.716;7.016;2022-07-12T04:32:34;1.50;;;1.00;;
71836;SDS011;59686;51.716;7.016;2022-07-12T04:35:00;0.80;;;0.80;;
71836;SDS011;59686;51.716;7.016;2022-07-12T04:37:26;1.20;;;0.73;;
71836;SDS011;59686;51.716;7.016;2022-07-12T04:39:51;1.00;;;0.80;;
71836;SDS011;59686;51.716;7.016;2022-07-12T04:42:17;1.48;;;0.90;;
71836;SDS011;59686;51.716;7.016;2022-07-12T04:44:43;1.35;;;1.00;;
71836;SDS011;59686;51.716;7.016;2022-07-12T04:47:08;0.80;;;0.75;;
71836;SDS011;59686;51.716;7.016;2022-07-12T04:49:35;1.40;;;1.02;;
71836;SDS011;59686;51.716;7.016;2022-07-12T04:52:15;1.15;;;0.85;;
71836;SDS011;59686;51.716;7.016;2022-07-12T04:54:41;0.90;;;0.90;;
71836;SDS011;59686;51.716;7.016;2022-07-12T04:57:07;1.25;;;0.80;;
71836;SDS011;59686;51.716;7.016;2022-07-12T04:59:32;0.90;;;0.90;;
71836;SDS011;59686;51.716;7.016;2022-07-12T05:01:58;0.80;;;0.80;;
71836;SDS011;59686;51.716;7.016;2022-07-12T05:04:24;4.35;;;0.98;;
71836;SDS011;59686;51.716;7.016;2022-07-12T05:06:49;0.80;;;0.80;;
71836;SDS011;59686;51.716;7.016;2022-07-12T05:09:17;1.02;;;0.80;;
71836;SDS011;59686;51.716;7.016;2022-07-12T05:11:42;0.80;;;0.80;;
71836;SDS011;59686;51.716;7.016;2022-07-12T05:14:08;2.60;;;1.00;;
71836;SDS011;59686;51.716;7.016;2022-07-12T05:16:34;0.98;;;0.93;;
71836;SDS011;59686;51.716;7.016;2022-07-12T05:19:00;2.10;;;0.98;;
71836;SDS011;59686;51.716;7.016;2022-07-12T05:21:33;1.25;;;1.15;;
71836;SDS011;59686;51.716;7.016;2022-07-12T05:24:00;1.25;;;0.90;;
71836;SDS011;59686;51.716;7.016;2022-07-12T05:29:28;0.80;;;0.80;;
71836;SDS011;59686;51.716;7.016;2022-07-12T05:32:00;1.08;;;1.00;;
71836;SDS011;59686;51.716;7.016;2022-07-12T05:34:26;1.83;;;1.00;;
71836;SDS011;59686;51.716;7.016;2022-07-12T05:36:53;0.90;;;0.90;;
71836;SDS011;59686;51.716;7.016;2022-07-12T05:39:19;1.10;;;0.95;;
71836;SDS011;59686;51.716;7.016;2022-07-12T05:44:39;1.00;;;1.00;;
71836;SDS011;59686;51.716;7.016;2022-07-12T05:47:05;1.13;;;1.02;;
71836;SDS011;59686;51.716;7.016;2022-07-12T05:49:31;1.10;;;1.00;;
71836;SDS011;59686;51.716;7.016;2022-07-12T05:51:56;3.08;;;1.25;;
71836;SDS011;59686;51.716;7.016;2022-07-12T05:54:43;1.20;;;1.10;;
71836;SDS011;59686;51.716;7.016;2022-07-12T05:57:08;1.08;;;1.00;;
71836;SDS011;59686;51.716;7.016;2022-07-12T05:59:35;1.23;;;1.13;;
71836;SDS011;59686;51.716;7.016;2022-07-12T06:02:00;1.40;;;1.20;;
71836;SDS011;59686;51.716;7.016;2022-07-12T06:04:26;1.77;;;1.20;;
71836;SDS011;59686;51.716;7.016;2022-07-12T06:06:52;1.08;;;0.98;;
71836;SDS011;59686;51.716;7.016;2022-07-12T06:09:18;2.80;;;1.10;;
71836;SDS011;59686;51.716;7.016;2022-07-12T06:11:48;1.55;;;1.27;;
71836;SDS011;59686;51.716;7.016;2022-07-12T06:14:13;1.85;;;1.30;;
71836;SDS011;59686;51.716;7.016;2022-07-12T06:16:39;1.85;;;1.08;;
71836;SDS011;59686;51.716;7.016;2022-07-12T06:19:05;1.20;;;1.10;;
71836;SDS011;59686;51.716;7.016;2022-07-12T06:21:30;2.15;;;1.20;;
71836;SDS011;59686;51.716;7.016;2022-07-12T06:23:56;1.55;;;1.45;;
71836;SDS011;59686;51.716;7.016;2022-07-12T06:26:31;1.33;;;1.20;;
71836;SDS011;59686;51.716;7.016;2022-07-12T06:28:57;1.25;;;1.10;;
71836;SDS011;59686;51.716;7.016;2022-07-12T06:31:22;1.10;;;1.10;;
71836;SDS011;59686;51.716;7.016;2022-07-12T06:33:49;1.30;;;1.20;;
71836;SDS011;59686;51.716;7.016;2022-07-12T06:36:15;1.80;;;1.40;;
71836;SDS011;59686;51.716;7.016;2022-07-12T06:38:41;1.48;;;1.20;;
71836;SDS011;59686;51.716;7.016;2022-07-12T06:41:06;1.33;;;1.10;;
71836;SDS011;59686;51.716;7.016;2022-07-12T06:43:32;1.42;;;1.33;;
71836;SDS011;59686;51.716;7.016;2022-07-12T06:45:58;2.03;;;1.23;;
71836;SDS011;59686;51.716;7.016;2022-07-12T06:48:23;1.65;;;1.42;;
71836;SDS011;59686;51.716;7.016;2022-07-12T06:50:49;1.50;;;1.40;;
71836;SDS011;59686;51.716;7.016;2022-07-12T06:53:15;1.77;;;1.30;;
71836;SDS011;59686;51.716;7.016;2022-07-12T06:55:44;2.35;;;1.40;;
71836;SDS011;59686;51.716;7.016;2022-07-12T06:58:09;1.70;;;1.60;;
71836;SDS011;59686;51.716;7.016;2022-07-12T07:00:35;2.40;;;1.63;;
71836;SDS011;59686;51.716;7.016;2022-07-12T07:05:37;1.38;;;1.27;;
71836;SDS011;59686;51.716;7.016;2022-07-12T07:08:03;3.90;;;1.50;;
71836;SDS011;59686;51.716;7.016;2022-07-12T07:10:28;1.85;;;1.67;;
71836;SDS011;59686;51.716;7.016;2022-07-12T07:12:54;2.55;;;1.60;;
71836;SDS011;59686;51.716;7.016;2022-07-12T07:15:20;2.42;;;1.63;;
71836;SDS011;59686;51.716;7.016;2022-07-12T07:17:46;2.28;;;1.83;;
71836;SDS011;59686;51.716;7.016;2022-07-12T07:20:11;3.30;;;1.60;;
71836;SDS011;59686;51.716;7.016;2022-07-12T07:22:37;1.55;;;1.45;;
71836;SDS011;59686;51.716;7.016;2022-07-12T07:25:04;1.50;;;1.40;;
71836;SDS011;59686;51.716;7.016;2022-07-12T07:27:30;2.63;;;1.52;;
71836;SDS011;59686;51.716;7.016;2022-07-12T07:29:56;1.73;;;1.58;;
71836;SDS011;59686;51.716;7.016;2022-07-12T07:32:40;3.28;;;1.92;;
71836;SDS011;59686;51.716;7.016;2022-07-12T07:35:06;4.45;;;1.83;;
71836;SDS011;59686;51.716;7.016;2022-07-12T07:37:32;4.10;;;2.10;;
71836;SDS011;59686;51.716;7.016;2022-07-12T07:39:59;1.85;;;1.75;;
71836;SDS011;59686;51.716;7.016;2022-07-12T07:42:28;3.50;;;1.63;;
71836;SDS011;59686;51.716;7.016;2022-07-12T07:44:54;2.58;;;1.90;;
71836;SDS011;59686;51.716;7.016;2022-07-12T07:47:20;2.17;;;1.50;;
71836;SDS011;59686;51.716;7.016;2022-07-12T07:49:46;1.80;;;1.70;;
71836;SDS011;59686;51.716;7.016;2022-07-12T07:52:12;2.25;;;1.98;;
71836;SDS011;59686;51.716;7.016;2022-07-12T07:54:37;2.35;;;1.73;;
71836;SDS011;59686;51.716;7.016;2022-07-12T07:57:03;1.80;;;1.60;;
71836;SDS011;59686;51.716;7.016;2022-07-12T07:59:29;1.88;;;1.50;;
71836;SDS011;59686;51.716;7.016;2022-07-12T08:01:55;2.15;;;1.75;;
71836;SDS011;59686;51.716;7.016;2022-07-12T08:04:21;2.90;;;1.75;;
71836;SDS011;59686;51.716;7.016;2022-07-12T08:06:49;1.92;;;1.65;;
71836;SDS011;59686;51.716;7.016;2022-07-12T08:09:15;1.80;;;1.50;;
71836;SDS011;59686;51.716;7.016;2022-07-12T08:11:41;1.92;;;1.45;;
71836;SDS011;59686;51.716;7.016;2022-07-12T08:14:08;2.80;;;1.60;;
71836;SDS011;59686;51.716;7.016;2022-07-12T08:16:34;1.92;;;1.70;;
71836;SDS011;59686;51.716;7.016;2022-07-12T08:19:01;1.50;;;1.40;;
71836;SDS011;59686;51.716;7.016;2022-07-12T08:21:27;2.55;;;1.60;;
71836;SDS011;59686;51.716;7.016;2022-07-12T08:23:52;2.75;;;1.88;;
71836;SDS011;59686;51.716;7.016;2022-07-12T08:26:18;2.25;;;1.80;;
71836;SDS011;59686;51.716;7.016;2022-07-12T08:28:44;2.75;;;1.70;;
71836;SDS011;59686;51.716;7.016;2022-07-12T08:31:10;2.28;;;1.60;;
71836;SDS011;59686;51.716;7.016;2022-07-12T08:33:38;2.20;;;1.70;;
71836;SDS011;59686;51.716;7.016;2022-07-12T08:36:05;2.38;;;1.60;;
71836;SDS011;59686;51.716;7.016;2022-07-12T08:38:33;1.85;;;1.50;;
71836;SDS011;59686;51.716;7.016;2022-07-12T08:41:01;3.88;;;1.90;;
71836;SDS011;59686;51.716;7.016;2022-07-12T08:43:28;1.67;;;1.45;;
71836;SDS011;59686;51.716;7.016;2022-07-12T08:45:53;1.50;;;1.40;;
71836;SDS011;59686;51.716;7.016;2022-07-12T08:48:19;2.25;;;1.38;;
71836;SDS011;59686;51.716;7.016;2022-07-12T08:50:59;2.03;;;1.40;;
71836;SDS011;59686;51.716;7.016;2022-07-12T08:53:26;1.60;;;1.30;;
71836;SDS011;59686;51.716;7.016;2022-07-12T08:55:52;1.95;;;1.40;;
71836;SDS011;59686;51.716;7.016;2022-07-12T08:58:18;1.80;;;1.45;;
71836;SDS011;59686;51.716;7.016;2022-07-12T09:00:43;1.50;;;1.40;;
71836;SDS011;59686;51.716;7.016;2022-07-12T09:03:09;2.15;;;1.50;;
71836;SDS011;59686;51.716;7.016;2022-07-12T09:05:37;1.33;;;1.23;;
71836;SDS011;59686;51.716;7.016;2022-07-12T09:08:07;1.80;;;1.40;;
71836;SDS011;59686;51.716;7.016;2022-07-12T09:13:14;1.80;;;1.30;;
71836;SDS011;59686;51.716;7.016;2022-07-12T09:15:40;1.35;;;1.25;;
71836;SDS011;59686;51.716;7.016;2022-07-12T09:18:09;1.35;;;1.25;;
71836;SDS011;59686;51.716;7.016;2022-07-12T09:20:43;1.30;;;1.20;;
71836;SDS011;59686;51.716;7.016;2022-07-12T09:23:16;2.38;;;1.33;;
71836;SDS011;59686;51.716;7.016;2022-07-12T09:25:46;2.03;;;1.30;;
71836;SDS011;59686;51.716;7.016;2022-07-12T09:28:14;1.40;;;1.10;;
71836;SDS011;59686;51.716;7.016;2022-07-12T09:30:50;1.80;;;1.40;;
71836;SDS011;59686;51.716;7.016;2022-07-12T09:33:18;1.30;;;1.20;;
71836;SDS011;59686;51.716;7.016;2022-07-12T09:36:04;2.35;;;1.30;;
71836;SDS011;59686;51.716;7.016;2022-07-12T09:38:50;1.35;;;1.20;;
71836;SDS011;59686;51.716;7.016;2022-07-12T09:41:25;1.63;;;1.20;;
71836;SDS011;59686;51.716;7.016;2022-07-12T09:43:51;1.65;;;1.40;;
71836;SDS011;59686;51.716;7.016;2022-07-12T09:46:18;2.30;;;1.15;;
71836;SDS011;59686;51.716;7.016;2022-07-12T09:48:45;1.30;;;1.20;;
71836;SDS011;59686;51.716;7.016;2022-07-12T09:51:15;1.35;;;1.20;;
71836;SDS011;59686;51.716;7.016;2022-07-12T09:53:45;1.30;;;1.20;;
71836;SDS011;59686;51.716;7.016;2022-07-12T09:56:14;1.33;;;1.23;;
71836;SDS011;59686;51.716;7.016;2022-07-12T09:58:47;1.75;;;1.20;;
71836;SDS011;59686;51.716;7.016;2022-07-12T10:01:17;1.20;;;1.10;;
71836;SDS011;59686;51.716;7.016;2022-07-12T10:03:44;1.27;;;1.17;;
71836;SDS011;59686;51.716;7.016;2022-07-12T10:06:16;2.03;;;1.30;;
71836;SDS011;59686;51.716;7.016;2022-07-12T10:08:48;1.75;;;1.13;;
71836;SDS011;59686;51.716;7.016;2022-07-12T10:11:14;1.20;;;1.10;;
71836;SDS011;59686;51.716;7.016;2022-07-12T10:13:40;2.53;;;1.30;;
71836;SDS011;59686;51.716;7.016;2022-07-12T10:16:06;1.35;;;1.17;;
71836;SDS011;59686;51.716;7.016;2022-07-12T10:18:35;1.75;;;1.10;;
71836;SDS011;59686;51.716;7.016;2022-07-12T10:21:05;3.70;;;1.10;;
71836;SDS011;59686;51.716;7.016;2022-07-12T10:23:44;1.25;;;1.00;;
71836;SDS011;59686;51.716;7.016;2022-07-12T10:31:28;1.80;;;1.13;;
71836;SDS011;59686;51.716;7.016;2022-07-12T10:34:11;1.65;;;1.20;;
71836;SDS011;59686;51.716;7.016;2022-07-12T10:39:22;1.27;;;1.10;;
71836;SDS011;59686;51.716;7.016;2022-07-12T10:44:33;1.75;;;0.93;;
71836;SDS011;59686;51.716;7.016;2022-07-12T10:47:08;2.53;;;1.30;;
71836;SDS011;59686;51.716;7.016;2022-07-12T10:49:37;2.45;;;1.50;;
71836;SDS011;59686;51.716;7.016;2022-07-12T10:54:47;1.60;;;1.30;;
71836;SDS011;59686;51.716;7.016;2022-07-12T10:57:40;1.83;;;1.20;;
71836;SDS011;59686;51.716;7.016;2022-07-12T11:00:09;3.28;;;1.23;;
71836;SDS011;59686;51.716;7.016;2022-07-12T11:02:43;1.45;;;1.15;;
71836;SDS011;59686;51.716;7.016;2022-07-12T11:05:08;2.35;;;1.40;;
71836;SDS011;59686;51.716;7.016;2022-07-12T11:07:34;2.25;;;1.50;;
71836;SDS011;59686;51.716;7.016;2022-07-12T11:10:00;3.33;;;1.40;;
71836;SDS011;59686;51.716;7.016;2022-07-12T11:12:28;1.75;;;1.40;;
71836;SDS011;59686;51.716;7.016;2022-07-12T11:15:00;4.18;;;1.50;;
71836;SDS011;59686;51.716;7.016;2022-07-12T11:17:27;1.90;;;1.42;;
71836;SDS011;59686;51.716;7.016;2022-07-12T11:22:58;3.50;;;1.40;;
71836;SDS011;59686;51.716;7.016;2022-07-12T11:25:25;2.42;;;1.30;;
71836;SDS011;59686;51.716;7.016;2022-07-12T11:27:50;1.48;;;1.30;;
71836;SDS011;59686;51.716;7.016;2022-07-12T11:30:16;1.60;;;1.40;;
71836;SDS011;59686;51.716;7.016;2022-07-12T11:32:42;1.55;;;1.20;;
71836;SDS011;59686;51.716;7.016;2022-07-12T11:35:22;2.10;;;1.60;;
71836;SDS011;59686;51.716;7.016;2022-07-12T11:38:00;2.03;;;1.20;;
71836;SDS011;59686;51.716;7.016;2022-07-12T11:40:28;3.65;;;1.20;;
71836;SDS011;59686;51.716;7.016;2022-07-12T11:42:55;2.33;;;1.33;;
71836;SDS011;59686;51.716;7.016;2022-07-12T11:45:26;1.27;;;1.17;;
71836;SDS011;59686;51.716;7.016;2022-07-12T11:47:53;1.50;;;1.25;;
71836;SDS011;59686;51.716;7.016;2022-07-12T11:50:19;1.63;;;1.20;;
71836;SDS011;59686;51.716;7.016;2022-07-12T11:52:47;1.42;;;1.33;;
71836;SDS011;59686;51.716;7.016;2022-07-12T11:55:13;1.65;;;1.20;;
71836;SDS011;59686;51.716;7.016;2022-07-12T11:57:39;1.40;;;1.30;;
71836;SDS011;59686;51.716;7.016;2022-07-12T12:03:00;1.38;;;1.23;;
71836;SDS011;59686;51.716;7.016;2022-07-12T12:05:26;2.90;;;1.40;;
71836;SDS011;59686;51.716;7.016;2022-07-12T12:07:52;1.55;;;1.25;;
71836;SDS011;59686;51.716;7.016;2022-07-12T12:10:18;1.30;;;1.20;;
71836;SDS011;59686;51.716;7.016;2022-07-12T12:15:30;1.55;;;1.45;;
71836;SDS011;59686;51.716;7.016;2022-07-12T12:17:58;1.40;;;1.13;;
71836;SDS011;59686;51.716;7.016;2022-07-12T12:22:59;1.50;;;1.30;;
71836;SDS011;59686;51.716;7.016;2022-07-12T12:25:27;1.50;;;1.40;;
71836;SDS011;59686;51.716;7.016;2022-07-12T12:27:58;1.63;;;1.40;;
71836;SDS011;59686;51.716;7.016;2022-07-12T12:30:31;1.83;;;1.58;;
71836;SDS011;59686;51.716;7.016;2022-07-12T12:33:13;2.22;;;1.55;;
71836;SDS011;59686;51.716;7.016;2022-07-12T12:35:57;2.17;;;1.50;;
71836;SDS011;59686;51.716;7.016;2022-07-12T12:38:39;3.20;;;1.50;;
71836;SDS011;59686;51.716;7.016;2022-07-12T12:41:07;2.38;;;1.30;;
71836;SDS011;59686;51.716;7.016;2022-07-12T12:46:05;1.58;;;1.38;;
71836;SDS011;59686;51.716;7.016;2022-07-12T12:48:32;1.50;;;1.40;;
71836;SDS011;59686;51.716;7.016;2022-07-12T12:51:16;2.13;;;1.50;;
71836;SDS011;59686;51.716;7.016;2022-07-12T12:53:42;4.32;;;1.70;;
71836;SDS011;59686;51.716;7.016;2022-07-12T12:56:12;1.55;;;1.40;;
71836;SDS011;59686;51.716;7.016;2022-07-12T12:58:40;1.48;;;1.38;;
71836;SDS011;59686;51.716;7.016;2022-07-12T13:01:06;2.40;;;1.50;;
71836;SDS011;59686;51.716;7.016;2022-07-12T13:03:33;2.00;;;1.50;;
71836;SDS011;59686;51.716;7.016;2022-07-12T13:08:32;3.17;;;2.10;;
71836;SDS011;59686;51.716;7.016;2022-07-12T13:10:58;3.65;;;1.90;;
71836;SDS011;59686;51.716;7.016;2022-07-12T13:13:43;3.20;;;1.85;;
71836;SDS011;59686;51.716;7.016;2022-07-12T13:16:09;3.15;;;1.85;;
71836;SDS011;59686;51.716;7.016;2022-07-12T13:18:34;2.38;;;2.00;;
71836;SDS011;59686;51.716;7.016;2022-07-12T13:21:00;6.78;;;1.60;;
71836;SDS011;59686;51.716;7.016;2022-07-12T13:23:26;2.08;;;1.50;;
71836;SDS011;59686;51.716;7.016;2022-07-12T13:25:51;2.85;;;1.85;;
71836;SDS011;59686;51.716;7.016;2022-07-12T13:28:17;2.78;;;1.88;;
71836;SDS011;59686;51.716;7.016;2022-07-12T13:30:43;3.10;;;1.63;;
71836;SDS011;59686;51.716;7.016;2022-07-12T13:33:14;3.67;;;2.38;;
71836;SDS011;59686;51.716;7.016;2022-07-12T13:35:40;2.88;;;2.05;;
71836;SDS011;59686;51.716;7.016;2022-07-12T13:38:07;3.35;;;2.00;;
71836;SDS011;59686;51.716;7.016;2022-07-12T13:40:32;3.88;;;2.30;;
71836;SDS011;59686;51.716;7.016;2022-07-12T13:42:59;4.13;;;1.90;;
71836;SDS011;59686;51.716;7.016;2022-07-12T13:47:53;4.93;;;2.33;;
71836;SDS011;59686;51.716;7.016;2022-07-12T13:50:19;3.50;;;2.15;;
71836;SDS011;59686;51.716;7.016;2022-07-12T13:52:50;4.63;;;2.10;;
71836;SDS011;59686;51.716;7.016;2022-07-12T13:55:16;4.22;;;1.92;;
71836;SDS011;59686;51.716;7.016;2022-07-12T13:57:48;3.13;;;2.05;;
71836;SDS011;59686;51.716;7.016;2022-07-12T14:00:14;5.88;;;2.33;;
71836;SDS011;59686;51.716;7.016;2022-07-12T14:02:42;5.47;;;2.40;;
71836;SDS011;59686;51.716;7.016;2022-07-12T14:05:13;3.35;;;2.20;;
71836;SDS011;59686;51.716;7.016;2022-07-12T14:07:40;4.57;;;2.63;;
71836;SDS011;59686;51.716;7.016;2022-07-12T14:10:15;4.38;;;2.40;;
71836;SDS011;59686;51.716;7.016;2022-07-12T14:12:41;3.97;;;2.47;;
71836;SDS011;59686;51.716;7.016;2022-07-12T14:15:07;2.95;;;2.10;;
71836;SDS011;59686;51.716;7.016;2022-07-12T14:20:09;5.00;;;2.63;;
71836;SDS011;59686;51.716;7.016;2022-07-12T14:22:39;4.28;;;2.40;;
71836;SDS011;59686;51.716;7.016;2022-07-12T14:25:06;4.03;;;2.65;;
71836;SDS011;59686;51.716;7.016;2022-07-12T14:27:33;4.75;;;2.78;;
71836;SDS011;59686;51.716;7.016;2022-07-12T14:30:00;3.13;;;2.28;;
71836;SDS011;59686;51.716;7.016;2022-07-12T14:32:25;3.33;;;2.40;;
71836;SDS011;59686;51.716;7.016;2022-07-12T14:34:51;3.72;;;2.50;;
71836;SDS011;59686;51.716;7.016;2022-07-12T14:37:17;4.93;;;2.50;;
71836;SDS011;59686;51.716;7.016;2022-07-12T14:39:43;7.88;;;2.60;;
71836;SDS011;59686;51.716;7.016;2022-07-12T14:42:09;4.88;;;2.50;;
71836;SDS011;59686;51.716;7.016;2022-07-12T14:44:35;3.95;;;2.40;;
71836;SDS011;59686;51.716;7.016;2022-07-12T14:47:01;3.28;;;2.03;;
71836;SDS011;59686;51.716;7.016;2022-07-12T14:49:27;3.42;;;2.00;;
71836;SDS011;59686;51.716;7.016;2022-07-12T14:51:53;2.63;;;2.20;;
71836;SDS011;59686;51.716;7.016;2022-07-12T14:54:24;3.67;;;2.10;;
71836;SDS011;59686;51.716;7.016;2022-07-12T14:56:50;3.28;;;2.10;;
71836;SDS011;59686;51.716;7.016;2022-07-12T14:59:16;3.75;;;2.28;;
71836;SDS011;59686;51.716;7.016;2022-07-12T15:01:41;2.85;;;2.20;;
71836;SDS011;59686;51.716;7.016;2022-07-12T15:04:07;3.08;;;1.90;;
71836;SDS011;59686;51.716;7.016;2022-07-12T15:06:33;3.10;;;2.30;;
71836;SDS011;59686;51.716;7.016;2022-07-12T15:11:29;2.90;;;1.90;;
71836;SDS011;59686;51.716;7.016;2022-07-12T15:13:55;2.83;;;1.92;;
71836;SDS011;59686;51.716;7.016;2022-07-12T15:16:20;3.38;;;1.90;;
71836;SDS011;59686;51.716;7.016;2022-07-12T15:18:48;3.92;;;1.83;;
71836;SDS011;59686;51.716;7.016;2022-07-12T15:21:14;2.28;;;1.70;;
71836;SDS011;59686;51.716;7.016;2022-07-12T15:23:40;1.95;;;1.70;;
71836;SDS011;59686;51.716;7.016;2022-07-12T15:26:06;3.33;;;1.90;;
71836;SDS011;59686;51.716;7.016;2022-07-12T15:28:32;2.13;;;1.65;;
71836;SDS011;59686;51.716;7.016;2022-07-12T15:30:58;1.73;;;1.63;;
71836;SDS011;59686;51.716;7.016;2022-07-12T15:33:25;2.05;;;1.60;;
71836;SDS011;59686;51.716;7.016;2022-07-12T15:35:50;3.28;;;1.70;;
71836;SDS011;59686;51.716;7.016;2022-07-12T15:38:20;2.60;;;1.70;;
71836;SDS011;59686;51.716;7.016;2022-07-12T15:40:45;3.33;;;1.80;;
71836;SDS011;59686;51.716;7.016;2022-07-12T15:43:11;1.90;;;1.73;;